Time;durP1;ratioP1;P1;durP2;ratioP2;P2;SDS_P1;SDS_P2;PMS_P1;PMS_P2;Temp;Humidity;BMP_temperature;BMP_pressure;BME280_temperature;BME280_humidity;BME280_pressure;Samples;Min_cycle;Max_cycle;Signal;HPM_P1;HPM_P2
2023/03/29 00:02:28;;;;;;;9.82;5.13;;;;;;;-0.79;63.01;95557.84;4991128;28;20041;-77
2023/03/29 00:04:56;;;;;;;9.43;5.03;;;;;;;-0.60;62.96;95611.81;4973265;28;20032;-77
2023/03/29 00:07:24;;;;;;;6.65;4.60;;;;;;;-0.47;63.22;95622.31;4990829;28;20034;-77
2023/03/29 00:09:50;;;;;;;8.05;4.95;;;;;;;-1.11;63.08;95520.25;4990289;28;20046;-77
2023/03/29 00:12:16;;;;;;;13.27;5.00;;;;;;;-0.45;62.96;95620.31;4988797;28;20124;-77
2023/03/29 00:14:41;;;;;;;8.38;5.03;;;;;;;-0.40;62.92;95623.16;4989401;28;20036;-77
2023/03/29 00:17:07;;;;;;;11.88;5.45;;;;;;;-0.34;62.74;95618.16;4973172;28;20100;-77
2023/03/29 00:19:35;;;;;;;11.93;5.13;;;;;;;-0.90;62.78;95546.16;4988573;28;20113;-76
2023/03/29 00:22:02;;;;;;;10.52;5.38;;;;;;;-1.17;62.70;95495.81;4988544;28;20053;-76
2023/03/29 00:24:27;;;;;;;7.28;5.18;;;;;;;-0.34;62.47;95607.72;4990544;28;20038;-76
2023/03/29 00:26:52;;;;;;;8.05;4.78;;;;;;;-1.27;62.29;95502.34;4990615;28;20308;-76
2023/03/29 00:29:18;;;;;;;13.80;5.78;;;;;;;-0.69;62.59;95615.59;4989959;28;20413;-76
2023/03/29 00:31:50;;;;;;;6.72;4.63;;;;;;;-1.13;62.30;95543.03;4990285;28;20065;-77
2023/03/29 00:34:15;;;;;;;9.65;5.00;;;;;;;-1.20;62.31;95513.59;4990416;28;20523;-77
2023/03/29 00:36:42;;;;;;;18.77;5.38;;;;;;;-1.33;62.29;95480.50;4990624;28;20035;-77
2023/03/29 00:39:08;;;;;;;8.30;5.60;;;;;;;-0.54;62.28;95618.88;4989768;28;20030;-77
2023/03/29 00:41:34;;;;;;;7.30;5.03;;;;;;;-0.57;61.76;95626.28;4988184;28;20084;-77
2023/03/29 00:44:03;;;;;;;8.27;5.45;;;;;;;-0.61;62.03;95612.81;4972532;28;20038;-77
2023/03/29 00:46:30;;;;;;;12.23;5.35;;;;;;;-0.91;61.61;95580.22;4990326;28;20101;-77
2023/03/29 00:49:00;;;;;;;10.13;5.78;;;;;;;-1.37;61.74;95497.47;4990018;28;20030;-77
2023/03/29 00:51:29;;;;;;;7.95;5.13;;;;;;;-1.37;61.14;95505.28;4972055;28;20693;-77
2023/03/29 00:53:58;;;;;;;6.75;5.25;;;;;;;-2.33;60.74;95353.50;4988954;28;20041;-77
2023/03/29 00:56:33;;;;;;;7.43;5.25;;;;;;;-0.64;60.98;95620.22;4990499;28;20489;-77
2023/03/29 00:59:08;;;;;;;9.65;4.80;;;;;;;-0.61;61.19;95604.22;4990029;28;20038;-77
2023/03/29 01:01:58;;;;;;;7.10;4.72;;;;;;;-1.17;60.70;95540.03;4989931;28;20034;-77
2023/03/29 01:04:49;;;;;;;7.72;5.15;;;;;;;-0.66;61.05;95628.22;4958768;28;20022;-77
2023/03/29 01:07:24;;;;;;;7.45;5.05;;;;;;;-0.61;61.06;95620.63;4994235;28;20479;-78
2023/03/29 01:09:57;;;;;;;9.50;5.07;;;;;;;-1.28;61.09;95519.75;4976153;28;20082;-78
2023/03/29 01:12:29;;;;;;;8.50;4.90;;;;;;;-0.97;61.36;95591.41;4993939;28;20460;-78
2023/03/29 01:15:00;;;;;;;13.32;6.05;;;;;;;-0.62;61.27;95632.06;4994293;28;20035;-77
2023/03/29 01:17:30;;;;;;;11.85;5.47;;;;;;;-0.65;61.45;95627.22;4994451;28;20033;-77
2023/03/29 01:20:09;;;;;;;7.80;4.85;;;;;;;-1.01;61.13;95584.97;4993874;28;20045;-78
2023/03/29 01:22:53;;;;;;;11.80;5.28;;;;;;;-1.83;61.13;95450.38;4992256;28;20042;-78
2023/03/29 01:25:31;;;;;;;10.90;5.07;;;;;;;-0.71;61.40;95638.44;4993690;28;20073;-77
2023/03/29 01:28:01;;;;;;;6.90;4.90;;;;;;;-0.72;61.70;95634.22;4993802;28;20420;-78
2023/03/29 01:30:35;;;;;;;9.75;5.10;;;;;;;-0.65;61.62;95635.06;4993944;28;20030;-77
2023/03/29 01:33:22;;;;;;;8.63;5.35;;;;;;;-1.38;61.20;95518.50;4993284;28;20030;-77
2023/03/29 01:36:01;;;;;;;15.35;5.47;;;;;;;-0.65;60.64;95647.25;4993442;28;20121;-77
2023/03/29 01:38:42;;;;;;;12.77;5.03;;;;;;;-0.72;60.93;95626.41;4977401;28;20117;-77
2023/03/29 01:41:09;;;;;;;7.65;4.88;;;;;;;-0.71;60.40;95635.81;4993477;28;20045;-77
2023/03/29 01:43:50;;;;;;;14.10;5.10;;;;;;;-0.79;60.04;95631.56;4991047;28;20173;-77
2023/03/29 01:46:35;;;;;;;9.80;4.80;;;;;;;-1.24;59.97;95548.81;4993565;28;20037;-77
2023/03/29 01:49:11;;;;;;;12.82;5.90;;;;;;;-0.70;59.90;95623.59;4993401;28;20485;-77
2023/03/29 01:51:41;;;;;;;10.38;5.15;;;;;;;-0.71;60.08;95633.22;4993505;28;20085;-76
2023/03/29 01:54:25;;;;;;;7.95;4.45;;;;;;;-0.75;60.25;95625.97;4993310;28;20037;-76
2023/03/29 01:56:51;;;;;;;8.98;5.30;;;;;;;-1.24;60.04;95548.81;4958086;28;20398;-76
2023/03/29 01:59:21;;;;;;;6.32;4.40;;;;;;;-1.65;59.89;95468.09;4992950;28;20034;-76
2023/03/29 02:01:54;;;;;;;11.77;5.35;;;;;;;-1.23;59.92;95540.81;4991755;28;20477;-76
2023/03/29 02:04:25;;;;;;;6.72;4.20;;;;;;;-0.69;59.77;95633.03;4992377;28;20044;-76
2023/03/29 02:06:53;;;;;;;14.85;5.15;;;;;;;-0.81;60.17;95624.94;4992800;28;20117;-75
2023/03/29 02:09:19;;;;;;;7.40;4.63;;;;;;;-1.29;60.04;95544.16;4992555;28;20513;-75
2023/03/29 02:11:46;;;;;;;8.60;4.55;;;;;;;-0.84;59.86;95628.72;4992570;28;20125;-75
2023/03/29 02:14:12;;;;;;;12.32;5.60;;;;;;;-2.02;59.92;95445.84;4992447;28;20112;-75
2023/03/29 02:16:39;;;;;;;13.27;4.47;;;;;;;-0.96;60.17;95606.03;4991357;28;20037;-75
2023/03/29 02:19:06;;;;;;;4.75;4.15;;;;;;;-1.48;60.23;95516.22;4974862;28;20038;-76
2023/03/29 02:21:46;;;;;;;6.22;4.72;;;;;;;-0.69;59.92;95635.63;4974981;28;20038;-76
2023/03/29 02:24:17;;;;;;;5.78;4.78;;;;;;;-0.73;59.75;95653.44;4974908;28;20034;-76
2023/03/29 02:26:42;;;;;;;13.20;4.93;;;;;;;-1.18;60.05;95579.25;4993056;28;20456;-76
2023/03/29 02:29:08;;;;;;;12.35;6.32;;;;;;;-0.70;59.86;95644.44;4992064;28;20026;-76
2023/03/29 02:31:41;;;;;;;10.20;4.47;;;;;;;-1.14;59.83;95587.50;4959172;28;20038;-76
2023/03/29 02:34:12;;;;;;;10.93;4.90;;;;;;;-0.83;59.52;95645.16;4992573;28;20347;-76
2023/03/29 02:36:42;;;;;;;11.48;5.15;;;;;;;-1.88;59.88;95489.16;4992055;28;20038;-76
2023/03/29 02:39:14;;;;;;;8.70;4.68;;;;;;;-1.44;59.72;95563.47;4992625;28;20050;-76
2023/03/29 02:41:41;;;;;;;;;;;;;;;-0.93;59.97;95652.53;4974982;28;20034;-76
2023/03/29 02:44:13;;;;;;;9.05;4.90;;;;;;;-1.69;59.67;95526.69;4992254;28;19917;-76
2023/03/29 02:46:41;;;;;;;8.18;4.45;;;;;;;-1.82;59.44;95514.38;4992295;28;20057;-76
2023/03/29 02:49:09;;;;;;;12.88;5.07;;;;;;;-2.11;59.72;95475.56;4992030;28;20053;-76
2023/03/29 02:51:36;;;;;;;10.20;5.00;;;;;;;-0.88;59.73;95660.56;4992237;28;20034;-76
2023/03/29 02:54:18;;;;;;;8.77;4.97;;;;;;;-2.04;59.42;95484.22;4992604;28;20037;-76
2023/03/29 02:56:48;;;;;;;14.38;5.22;;;;;;;-1.02;59.73;95664.88;4993077;28;20519;-76
2023/03/29 02:59:15;;;;;;;7.90;4.80;;;;;;;-1.63;59.68;95568.34;4993091;28;20519;-75
2023/03/29 03:01:43;;;;;;;11.10;4.05;;;;;;;-1.24;59.76;95625.06;4993150;28;20034;-75
2023/03/29 03:04:11;;;;;;;6.45;4.70;;;;;;;-1.30;59.83;95610.22;4992913;28;20049;-75
2023/03/29 03:06:37;;;;;;;12.77;5.18;;;;;;;-1.11;59.93;95663.41;4992099;28;20142;-76
2023/03/29 03:09:04;;;;;;;8.90;4.50;;;;;;;-0.93;60.41;95676.75;4991843;28;20050;-76
2023/03/29 03:11:31;;;;;;;9.15;5.00;;;;;;;-0.97;60.33;95672.91;4990541;28;20192;-76
2023/03/29 03:13:56;;;;;;;7.40;5.00;;;;;;;-1.35;60.16;95596.97;4988225;28;20033;-76
2023/03/29 03:16:22;;;;;;;9.82;4.88;;;;;;;-1.30;60.91;95620.63;4996487;28;20038;-76
2023/03/29 03:18:50;;;;;;;12.93;4.70;;;;;;;-1.49;60.82;95592.66;4973515;28;20030;-76
2023/03/29 03:21:17;;;;;;;6.07;4.22;;;;;;;-0.95;61.26;95670.13;4991356;28;20120;-75
2023/03/29 03:23:44;;;;;;;8.60;4.53;;;;;;;-1.30;61.66;95631.03;4991768;28;20361;-75
2023/03/29 03:26:10;;;;;;;8.07;3.88;;;;;;;-1.71;61.48;95565.06;4990781;28;20041;-76
2023/03/29 03:28:35;;;;;;;6.93;4.22;;;;;;;-1.09;60.84;95661.41;4991192;28;20029;-76
2023/03/29 03:31:01;;;;;;;6.15;4.10;;;;;;;-1.85;61.59;95581.56;4973864;28;20030;-75
2023/03/29 03:33:27;;;;;;;7.80;4.50;;;;;;;-1.65;60.65;95575.53;4973530;28;20030;-75
2023/03/29 03:35:55;;;;;;;10.57;4.60;;;;;;;-2.08;60.71;95520.19;4990065;28;20030;-75
2023/03/29 03:38:22;;;;;;;9.23;4.28;;;;;;;-0.90;60.21;95705.00;4990237;28;20050;-75
2023/03/29 03:40:57;;;;;;;8.43;5.22;;;;;;;-2.11;60.18;95493.75;4989854;28;20433;-75
2023/03/29 03:43:23;;;;;;;9.75;4.72;;;;;;;-0.90;60.05;95709.41;4990941;28;20105;-78
2023/03/29 03:45:49;;;;;;;7.22;4.70;;;;;;;-0.90;59.92;95704.19;4989376;28;20758;-76
2023/03/29 03:48:15;;;;;;;6.60;3.85;;;;;;;-2.17;59.77;95518.69;4990721;28;20044;-76
2023/03/29 03:50:46;;;;;;;5.80;3.78;;;;;;;-0.94;59.67;95718.59;4973526;28;20019;-76
2023/03/29 03:53:13;;;;;;;7.85;4.53;;;;;;;-1.26;59.19;95663.50;4990737;28;20492;-76
2023/03/29 03:55:38;;;;;;;9.88;4.70;;;;;;;-0.97;58.69;95743.19;4971380;28;20450;-75
2023/03/29 03:58:04;;;;;;;6.53;3.92;;;;;;;-1.67;58.74;95623.50;5002252;28;20030;-76
2023/03/29 04:00:29;;;;;;;5.55;4.50;;;;;;;-0.97;58.38;95729.38;4990215;28;20022;-76
2023/03/29 04:02:55;;;;;;;12.15;4.57;;;;;;;-1.24;58.37;95671.13;4995360;28;20112;-76
2023/03/29 04:05:20;;;;;;;9.88;4.45;;;;;;;-1.29;57.83;95679.47;4989008;28;20030;-76
2023/03/29 04:07:46;;;;;;;13.40;4.32;;;;;;;-1.93;57.66;95579.09;4989755;28;20027;-76
2023/03/29 04:10:12;;;;;;;13.10;4.13;;;;;;;-1.23;57.63;95677.94;4972202;28;20033;-76
2023/03/29 04:12:38;;;;;;;8.65;3.92;;;;;;;-1.90;57.68;95569.09;4991601;28;20030;-76
2023/03/29 04:15:04;;;;;;;8.13;4.90;;;;;;;-0.85;57.48;95731.31;4977826;28;20030;-76
2023/03/29 04:17:30;;;;;;;8.60;4.07;;;;;;;-1.40;57.00;95663.56;4985789;28;20509;-76
2023/03/29 04:19:56;;;;;;;7.35;4.05;;;;;;;-1.02;57.10;95724.75;4989317;28;20035;-76
2023/03/29 04:22:24;;;;;;;6.75;4.85;;;;;;;-2.31;56.64;95511.78;4983150;28;20600;-77
2023/03/29 04:24:50;;;;;;;7.47;4.22;;;;;;;-1.59;57.32;95641.59;4964359;28;22960;-77
2023/03/29 04:27:15;;;;;;;8.00;4.15;;;;;;;-1.01;57.25;95738.56;4982001;28;20045;-76
2023/03/29 04:29:43;;;;;;;9.80;4.70;;;;;;;-2.00;57.12;95572.03;4979075;28;20027;-77
2023/03/29 04:32:10;;;;;;;11.88;4.72;;;;;;;-0.95;57.35;95738.63;4958395;28;20034;-77
2023/03/29 04:34:36;;;;;;;7.93;4.32;;;;;;;-0.98;57.15;95746.00;4970995;28;20445;-77
2023/03/29 04:37:02;;;;;;;7.65;4.15;;;;;;;-1.04;56.99;95737.13;4968783;28;20061;-77
2023/03/29 04:39:32;;;;;;;7.05;4.03;;;;;;;-2.02;56.75;95587.00;4979026;28;20033;-77
2023/03/29 04:41:58;;;;;;;8.03;5.07;;;;;;;-2.24;57.28;95559.41;4966322;28;20504;-77
2023/03/29 04:44:25;;;;;;;9.75;4.53;;;;;;;-1.41;57.21;95685.38;4980720;28;20301;-77
2023/03/29 04:46:51;;;;;;;6.95;4.15;;;;;;;-2.60;57.50;95515.28;4979449;28;20033;-77
2023/03/29 04:49:17;;;;;;;8.88;4.93;;;;;;;-1.80;57.82;95632.00;4964394;28;20079;-79
2023/03/29 04:51:42;;;;;;;7.32;4.68;;;;;;;-1.24;57.81;95723.97;4984423;28;20054;-78
2023/03/29 04:54:08;;;;;;;9.68;4.72;;;;;;;-1.02;57.90;95750.78;4981425;28;20060;-79
2023/03/29 04:56:34;;;;;;;7.90;4.93;;;;;;;-1.00;57.43;95761.81;4970577;28;20521;-79
2023/03/29 04:59:00;;;;;;;9.23;4.50;;;;;;;-0.91;57.54;95784.09;4986422;28;20041;-77
2023/03/29 05:01:25;;;;;;;7.88;5.07;;;;;;;-1.37;56.90;95689.19;4975401;28;20330;-79
2023/03/29 05:03:51;;;;;;;5.45;4.32;;;;;;;-0.88;56.89;95767.31;4979609;28;20588;-78
2023/03/29 05:06:17;;;;;;;7.45;4.38;;;;;;;-0.93;56.27;95775.69;4983568;28;20026;-78
2023/03/29 05:08:43;;;;;;;6.97;4.07;;;;;;;-0.93;56.31;95795.72;4959868;28;20121;-78
2023/03/29 05:11:10;;;;;;;10.90;4.38;;;;;;;-0.84;56.63;95768.56;4946930;28;20026;-79
2023/03/29 05:13:37;;;;;;;7.78;4.50;;;;;;;-2.38;56.09;95540.28;4980861;28;20041;-79
2023/03/29 05:16:03;;;;;;;10.02;4.22;;;;;;;-0.82;55.95;95790.00;4979582;28;20724;-77
2023/03/29 05:18:30;;;;;;;8.40;4.13;;;;;;;-0.73;55.42;95780.25;4968509;28;20045;-79
2023/03/29 05:20:57;;;;;;;8.30;4.10;;;;;;;-0.89;54.91;95789.94;4979547;28;20035;-77
2023/03/29 05:23:23;;;;;;;10.10;4.07;;;;;;;-1.36;55.07;95735.03;4942313;28;20433;-79
2023/03/29 05:25:50;;;;;;;6.13;3.90;;;;;;;-1.39;54.37;95701.59;4980099;28;20082;-78
2023/03/29 05:28:17;;;;;;;6.03;3.88;;;;;;;-1.48;54.60;95697.50;4982854;28;20259;-79
2023/03/29 05:30:43;;;;;;;8.18;4.10;;;;;;;-0.68;54.50;95809.94;4959832;28;20396;-78
2023/03/29 05:33:09;;;;;;;8.80;3.88;;;;;;;-0.75;54.41;95796.06;4959865;28;20038;-78
2023/03/29 05:35:35;;;;;;;6.65;3.83;;;;;;;-1.60;54.42;95666.78;4960585;28;20419;-78
2023/03/29 05:38:01;;;;;;;14.02;4.85;;;;;;;-0.58;54.50;95804.41;4957028;28;20065;-77
2023/03/29 05:40:27;;;;;;;5.85;3.88;;;;;;;-0.62;54.41;95839.66;4976842;28;20441;-76
2023/03/29 05:42:53;;;;;;;8.55;3.92;;;;;;;-1.81;54.37;95619.19;4949031;28;20038;-77
2023/03/29 05:45:21;;;;;;;11.63;4.50;;;;;;;-1.43;54.37;95669.13;4972985;28;20049;-76
2023/03/29 05:47:47;;;;;;;8.85;3.90;;;;;;;-0.95;53.93;95732.59;4968250;28;21993;-76
2023/03/29 05:50:12;;;;;;;9.93;4.20;;;;;;;-1.34;54.14;95692.25;4966643;28;20119;-76
2023/03/29 05:52:39;;;;;;;7.10;4.00;;;;;;;-1.45;54.41;95676.34;4955132;28;20030;-77
2023/03/29 05:55:06;;;;;;;7.68;4.35;;;;;;;-1.17;54.58;95706.59;4973301;28;20521;-77
2023/03/29 05:57:35;;;;;;;4.53;3.42;;;;;;;-0.41;53.87;95869.09;4976228;28;20026;-78
2023/03/29 06:00:15;;;;;;;6.47;3.63;;;;;;;-1.04;53.52;95718.91;4975758;28;20045;-79
2023/03/29 06:02:41;;;;;;;9.07;3.83;;;;;;;-0.34;53.70;95821.44;4963072;28;20516;-80
2023/03/29 06:05:07;;;;;;;5.20;3.63;;;;;;;-1.14;52.93;95708.00;4980738;28;20030;-78
2023/03/29 06:07:33;;;;;;;9.18;3.47;;;;;;;-0.16;53.26;95853.03;4976760;28;20038;-77
2023/03/29 06:09:59;;;;;;;8.95;3.47;;;;;;;-0.51;52.68;95800.06;4972460;28;20232;-77
2023/03/29 06:12:25;;;;;;;8.32;3.67;;;;;;;-0.67;52.66;95782.91;4979382;28;20046;-78
2023/03/29 06:14:50;;;;;;;11.88;3.50;;;;;;;-0.38;52.36;95828.81;4961638;28;20468;-77
2023/03/29 06:17:16;;;;;;;5.97;3.45;;;;;;;-0.73;52.66;95799.28;4960351;28;20108;-77
2023/03/29 06:19:43;;;;;;;4.53;3.30;;;;;;;-1.12;51.95;95737.28;4956532;28;20034;-78
2023/03/29 06:22:08;;;;;;;10.85;3.40;;;;;;;-0.71;52.10;95754.81;4973459;28;20121;-84
2023/03/29 06:24:34;;;;;;;10.07;4.00;;;;;;;-0.65;52.52;95751.47;4965120;28;20130;-83
2023/03/29 06:27:00;;;;;;;12.15;3.92;;;;;;;-0.94;51.25;95716.00;4967845;28;20041;-82
2023/03/29 06:29:25;;;;;;;8.52;3.53;;;;;;;-0.01;51.66;95861.56;4982030;28;20109;-81
2023/03/29 06:31:53;;;;;;;5.60;3.60;;;;;;;-0.99;51.55;95744.41;4990714;28;20034;-86
2023/03/29 06:34:21;;;;;;;4.57;3.33;;;;;;;-1.09;51.28;95677.03;4988999;28;20042;-82
2023/03/29 06:36:46;;;;;;;6.30;3.58;;;;;;;-0.32;51.17;95794.19;4967169;28;20045;-83
2023/03/29 06:39:12;;;;;;;4.93;2.92;;;;;;;-1.04;50.15;95723.31;4971150;28;20042;-80
2023/03/29 06:41:38;;;;;;;5.68;3.30;;;;;;;0.11;51.12;95848.78;4972994;28;20057;-77
2023/03/29 06:44:04;;;;;;;7.57;3.28;;;;;;;-0.76;51.06;95741.56;4956228;28;20444;-77
2023/03/29 06:46:30;;;;;;;9.82;2.83;;;;;;;-0.95;50.53;95725.59;4939761;28;20031;-77
2023/03/29 06:48:55;;;;;;;7.57;3.38;;;;;;;-0.46;50.97;95776.84;4962126;28;20359;-79
2023/03/29 06:51:21;;;;;;;5.93;2.92;;;;;;;-0.77;50.62;95745.16;4977976;28;20338;-78
2023/03/29 06:53:47;;;;;;;8.38;3.38;;;;;;;0.02;50.76;95866.38;4980619;28;20121;-78
2023/03/29 06:56:13;;;;;;;9.63;3.58;;;;;;;-1.12;50.57;95698.22;4983264;28;20039;-80
2023/03/29 06:58:39;;;;;;;9.90;3.63;;;;;;;0.10;50.83;95855.00;4978997;28;20031;-78
2023/03/29 07:01:05;;;;;;;9.30;3.45;;;;;;;-0.72;50.87;95707.13;4977022;28;20034;-78
2023/03/29 07:03:33;;;;;;;5.95;2.80;;;;;;;-0.60;49.85;95742.06;4982662;28;20042;-80
2023/03/29 07:06:03;;;;;;;22.63;4.40;;;;;;;-0.32;49.73;95728.22;4977746;28;20570;-78
2023/03/29 07:08:31;;;;;;;12.40;3.67;;;;;;;0.23;48.98;95800.31;4976489;28;20065;-78
2023/03/29 07:10:58;;;;;;;5.63;2.55;;;;;;;0.10;48.49;95795.00;4975843;28;20118;-80
2023/03/29 07:13:25;;;;;;;6.22;3.00;;;;;;;-0.35;48.87;95729.41;4957838;28;20049;-80
2023/03/29 07:15:51;;;;;;;10.60;2.20;;;;;;;-0.28;48.61;95732.03;4983444;28;20033;-80
2023/03/29 07:18:17;;;;;;;6.18;2.80;;;;;;;0.14;48.48;95781.41;4958171;28;20512;-80
2023/03/29 07:20:43;;;;;;;4.55;2.55;;;;;;;0.07;48.34;95745.88;4953074;28;20146;-79
2023/03/29 07:23:10;;;;;;;8.25;2.45;;;;;;;0.58;48.05;95827.16;4971286;28;20075;-79
2023/03/29 07:25:38;;;;;;;5.07;2.83;;;;;;;0.24;47.99;95760.97;4975591;28;20045;-80
2023/03/29 07:28:05;;;;;;;5.55;2.80;;;;;;;0.12;47.50;95778.19;4959734;28;20197;-80
2023/03/29 07:30:31;;;;;;;5.95;2.25;;;;;;;1.05;47.57;95868.06;4980425;28;20026;-78
2023/03/29 07:33:01;;;;;;;4.85;2.20;;;;;;;0.19;47.49;95723.44;4962892;28;20038;-78
2023/03/29 07:35:27;;;;;;;5.68;2.55;;;;;;;0.89;46.99;95866.63;4955637;28;20038;-78
2023/03/29 07:37:54;;;;;;;5.38;2.70;;;;;;;-0.38;47.10;95626.34;4957485;28;20094;-78
2023/03/29 07:40:22;;;;;;;4.78;2.30;;;;;;;0.08;46.71;95669.25;4980595;28;20100;-78
2023/03/29 07:42:53;;;;;;;6.25;2.15;;;;;;;0.06;45.69;95685.09;4980937;28;20041;-79
2023/03/29 07:45:20;;;;;;;5.43;2.20;;;;;;;1.25;46.44;95858.44;4983050;28;20116;-81
2023/03/29 07:47:47;;;;;;;7.00;2.47;;;;;;;0.30;46.25;95715.88;4961786;28;20665;-80
2023/03/29 07:50:13;;;;;;;7.95;2.47;;;;;;;0.74;45.45;95800.69;4977471;28;20109;-80
2023/03/29 07:52:39;;;;;;;6.00;2.42;;;;;;;1.23;45.74;95864.88;4961554;28;20030;-82
2023/03/29 07:55:07;;;;;;;6.28;2.38;;;;;;;0.05;45.61;95661.81;4975529;28;20038;-81
2023/03/29 07:57:34;;;;;;;7.00;2.50;;;;;;;1.01;44.77;95804.16;4963253;28;20042;-77
2023/03/29 08:00:00;;;;;;;5.25;2.60;;;;;;;0.64;44.37;95754.06;4980075;28;20049;-85
2023/03/29 08:02:26;;;;;;;16.17;2.60;;;;;;;1.26;44.42;95875.75;4964169;28;20034;-81
2023/03/29 08:04:53;;;;;;;3.60;1.70;;;;;;;-1.73;43.84;95375.44;4977332;28;20101;-80
2023/03/29 08:07:35;;;;;;;4.25;2.05;;;;;;;1.45;43.90;95846.19;4991256;28;20022;-83
2023/03/29 08:11:08;;;;;;;4.97;2.15;;;;;;;-4.45;43.21;94988.97;4977874;28;20245;-83
2023/03/29 08:13:34;;;;;;;8.07;2.28;;;;;;;-1.81;43.67;95373.00;4957717;28;20073;-82
2023/03/29 08:16:00;;;;;;;8.90;2.35;;;;;;;0.04;42.54;95613.25;4958434;28;20157;-78
2023/03/29 08:18:26;;;;;;;6.32;2.60;;;;;;;1.02;41.80;95817.00;4962184;28;20035;-84
2023/03/29 08:20:58;;;;;;;3.92;2.22;;;;;;;1.44;42.16;95842.00;4959467;28;20039;-83
2023/03/29 08:23:23;;;;;;;;;;;;;;;1.47;42.20;95825.09;4970216;28;20037;-79
2023/03/29 08:25:49;;;;;;;4.72;1.70;;;;;;;1.53;42.99;95819.88;4964458;28;20741;-80
2023/03/29 08:28:15;;;;;;;3.53;2.20;;;;;;;0.55;44.28;95645.63;4957992;28;20034;-79
2023/03/29 08:30:41;;;;;;;7.30;2.80;;;;;;;0.80;43.56;95665.94;4960491;28;20030;-85
2023/03/29 08:33:07;;;;;;;4.13;2.40;;;;;;;1.99;41.99;95841.75;4960124;28;20039;-81
2023/03/29 08:35:33;;;;;;;7.47;2.08;;;;;;;1.15;41.16;95735.22;4952500;28;20058;-79
2023/03/29 08:37:58;;;;;;;5.57;2.13;;;;;;;0.58;41.44;95662.72;4954099;28;20145;-79
2023/03/29 08:40:28;;;;;;;3.17;1.70;;;;;;;1.32;40.32;95799.16;4945237;28;20041;-79
2023/03/29 08:43:12;;;;;;;5.15;1.88;;;;;;;1.69;40.48;95821.28;4954172;28;20506;-83
2023/03/29 08:45:49;;;;;;;5.60;2.45;;;;;;;1.81;41.06;95847.63;4961571;28;20452;-81
2023/03/29 08:48:27;;;;;;;4.88;2.10;;;;;;;2.02;40.26;95857.88;4959584;28;20042;-80
2023/03/29 08:50:58;;;;;;;3.08;1.83;;;;;;;2.03;37.52;95822.03;4955188;28;20085;-79
2023/03/29 08:53:45;;;;;;;6.20;2.00;;;;;;;1.97;36.79;95828.91;4962758;28;20030;-78
2023/03/29 08:56:19;;;;;;;6.05;2.50;;;;;;;1.61;37.34;95766.56;4973295;28;20518;-77
2023/03/29 08:58:46;;;;;;;10.23;2.47;;;;;;;1.96;36.68;95839.56;4956635;28;20063;-79
2023/03/29 09:01:12;;;;;;;3.83;2.00;;;;;;;1.76;37.57;95768.97;4953201;28;20138;-78
2023/03/29 09:03:47;;;;;;;12.00;2.10;;;;;;;2.11;36.95;95817.41;4957775;28;20166;-82
2023/03/29 09:06:13;;;;;;;7.65;1.70;;;;;;;2.13;37.21;95825.06;4955105;28;20144;-79
2023/03/29 09:08:50;;;;;;;4.60;1.83;;;;;;;0.61;37.82;95558.69;4971949;28;20121;-81
2023/03/29 09:11:33;;;;;;;9.45;2.05;;;;;;;1.89;36.68;95780.22;4954464;28;20454;-79
2023/03/29 09:14:28;;;;;;;5.20;2.17;;;;;;;2.45;37.95;95810.22;4965726;28;20038;-79
2023/03/29 09:17:06;;;;;;;5.28;2.20;;;;;;;2.76;36.97;95851.41;4948676;28;20142;-77
2023/03/29 09:19:40;;;;;;;6.57;2.20;;;;;;;2.61;36.98;95807.94;4980395;28;20045;-77
2023/03/29 09:22:37;;;;;;;5.45;2.05;;;;;;;2.57;36.87;95805.97;4951693;28;20534;-77
2023/03/29 09:25:11;;;;;;;8.07;2.03;;;;;;;2.61;36.10;95838.56;4950507;28;20120;-77
2023/03/29 09:27:48;;;;;;;7.72;2.22;;;;;;;2.65;36.47;95842.41;4969925;28;20045;-78
2023/03/29 09:30:24;;;;;;;6.82;3.53;;;;;;;2.07;35.94;95692.41;4951779;28;20034;-77
2023/03/29 09:33:08;;;;;;;4.45;2.38;;;;;;;2.87;36.22;95780.84;4978286;28;20049;-77
2023/03/29 09:35:48;;;;;;;4.05;2.00;;;;;;;3.11;36.37;95823.84;4977596;28;20413;-77
2023/03/29 09:38:16;;;;;;;3.13;1.65;;;;;;;2.66;35.63;95726.16;4981638;28;20041;-78
2023/03/29 09:40:53;;;;;;;4.35;2.30;;;;;;;3.17;35.20;95802.00;4979827;28;20655;-76
2023/03/29 09:43:34;;;;;;;4.30;1.73;;;;;;;2.91;35.16;95781.19;4982515;28;20034;-77
2023/03/29 09:46:04;;;;;;;4.22;2.10;;;;;;;2.93;34.43;95784.44;4962926;28;20056;-76
2023/03/29 09:48:37;;;;;;;4.65;1.80;;;;;;;2.90;33.64;95756.03;4980394;28;20042;-77
2023/03/29 09:51:06;;;;;;;5.97;1.60;;;;;;;2.81;33.25;95760.72;4978219;28;20122;-77
2023/03/29 09:53:32;;;;;;;5.70;1.90;;;;;;;3.12;33.42;95754.69;4981848;28;20037;-76
2023/03/29 09:56:00;;;;;;;6.03;3.35;;;;;;;3.24;33.27;95820.31;4977642;28;20038;-76
2023/03/29 09:58:30;;;;;;;4.68;1.80;;;;;;;3.43;34.16;95798.41;4977291;28;20036;-77
2023/03/29 10:01:04;;;;;;;2.95;1.63;;;;;;;3.31;33.86;95807.97;4979865;28;20038;-76
2023/03/29 10:03:32;;;;;;;8.07;1.83;;;;;;;2.91;33.61;95724.38;4981490;28;20567;-77
2023/03/29 10:06:00;;;;;;;7.18;2.30;;;;;;;3.88;33.35;95738.69;4962686;28;20368;-76
2023/03/29 10:08:28;;;;;;;3.17;1.70;;;;;;;4.26;31.66;95773.41;4965129;28;20054;-76
2023/03/29 10:10:58;;;;;;;2.38;1.40;;;;;;;4.90;30.57;95790.38;4977736;28;20065;-77
2023/03/29 10:13:29;;;;;;;3.78;1.83;;;;;;;5.40;30.82;95764.56;4978654;28;20124;-76
2023/03/29 10:16:06;;;;;;;7.72;1.92;;;;;;;5.89;30.06;95764.38;4963119;28;20836;-76
2023/03/29 10:18:37;;;;;;;7.82;2.55;;;;;;;6.01;29.67;95787.06;4970616;28;20208;-77
2023/03/29 10:21:03;;;;;;;4.57;1.70;;;;;;;6.67;29.66;95791.06;4953998;28;20038;-77
2023/03/29 10:23:33;;;;;;;3.70;1.90;;;;;;;6.29;28.53;95752.09;4949575;28;20053;-79
2023/03/29 10:26:03;;;;;;;3.45;1.50;;;;;;;5.66;29.07;95686.22;4961109;28;20038;-79
2023/03/29 10:28:30;;;;;;;4.25;1.70;;;;;;;5.98;28.99;95690.09;4945511;28;20670;-78
2023/03/29 10:30:59;;;;;;;4.68;1.65;;;;;;;6.30;27.84;95698.38;4933198;28;20041;-81
2023/03/29 10:33:31;;;;;;;3.83;1.73;;;;;;;6.68;28.21;95731.25;4962159;28;20499;-77
2023/03/29 10:35:58;;;;;;;2.60;1.60;;;;;;;6.89;27.94;95778.84;4961169;28;20088;-78
2023/03/29 10:38:27;;;;;;;5.22;2.05;;;;;;;6.75;28.49;95788.06;4956395;28;20662;-77
2023/03/29 10:41:01;;;;;;;8.52;2.03;;;;;;;6.87;28.37;95717.63;4968765;28;20762;-78
2023/03/29 10:43:33;;;;;;;4.93;1.63;;;;;;;6.47;28.65;95658.94;4974263;28;20036;-77
2023/03/29 10:46:29;;;;;;;4.28;2.33;;;;;;;6.90;28.54;95724.28;4958819;28;20030;-77
2023/03/29 10:49:04;;;;;;;5.03;2.47;;;;;;;7.58;28.07;95763.69;4977176;28;20049;-78
2023/03/29 10:51:31;;;;;;;5.85;2.38;;;;;;;7.18;27.64;95769.06;4975734;28;20033;-78
2023/03/29 10:54:02;;;;;;;11.10;1.65;;;;;;;7.32;27.16;95778.28;4968317;28;20062;-77
2023/03/29 10:56:38;;;;;;;5.97;1.73;;;;;;;7.13;27.21;95699.63;4971708;28;20887;-78
2023/03/29 10:59:16;;;;;;;3.83;1.58;;;;;;;7.07;27.23;95750.69;4970632;28;20512;-79
2023/03/29 11:02:11;;;;;;;5.43;2.05;;;;;;;7.60;27.55;95729.13;4964805;28;20046;-77
2023/03/29 11:05:00;;;;;;;7.03;1.85;;;;;;;7.71;26.55;95767.81;4975659;28;20060;-78
2023/03/29 11:07:25;;;;;;;6.63;1.90;;;;;;;8.07;26.97;95718.97;4974608;28;20072;-78
2023/03/29 11:10:25;;;;;;;2.38;1.50;;;;;;;8.18;26.43;95741.03;4969098;28;20169;-77
2023/03/29 11:13:18;;;;;;;9.23;2.00;;;;;;;7.53;26.83;95712.66;4968224;28;20062;-77
2023/03/29 11:15:59;;;;;;;8.82;2.03;;;;;;;7.86;26.93;95712.59;4966453;28;20065;-79
2023/03/29 11:18:46;;;;;;;8.55;2.20;;;;;;;8.18;26.48;95711.97;4971847;28;20092;-79
2023/03/29 11:21:30;;;;;;;8.75;1.80;;;;;;;8.32;25.89;95744.94;4966929;28;20907;-76
2023/03/29 11:24:08;;;;;;;4.38;1.80;;;;;;;7.92;25.98;95710.84;4955110;28;20049;-77
2023/03/29 11:26:43;;;;;;;15.80;2.53;;;;;;;8.12;25.70;95697.91;4972294;28;20125;-77
2023/03/29 11:29:19;;;;;;;9.05;2.15;;;;;;;8.13;26.29;95765.56;4974647;28;20150;-77
2023/03/29 11:31:54;;;;;;;7.60;1.98;;;;;;;8.17;26.00;95720.94;4955885;28;20732;-76
2023/03/29 11:34:36;;;;;;;7.28;1.88;;;;;;;8.27;26.29;95719.22;4973899;28;20084;-78
2023/03/29 11:37:08;;;;;;;4.47;2.00;;;;;;;8.53;25.92;95701.88;4970936;28;20037;-76
2023/03/29 11:39:55;;;;;;;13.23;1.92;;;;;;;8.78;26.53;95696.84;4970089;28;20108;-76
2023/03/29 11:42:28;;;;;;;3.17;1.65;;;;;;;7.77;25.90;95582.06;4972977;28;20113;-77
2023/03/29 11:44:58;;;;;;;7.80;1.98;;;;;;;8.21;26.13;95704.38;4974346;28;20548;-79
2023/03/29 11:47:30;;;;;;;12.60;2.60;;;;;;;8.67;26.12;95715.50;4956515;28;20577;-77
2023/03/29 11:50:17;;;;;;;2.65;1.65;;;;;;;7.84;26.38;95672.47;4972108;28;20524;-77
2023/03/29 11:53:01;;;;;;;10.32;2.20;;;;;;;8.50;26.07;95697.88;4959371;28;20072;-77